createdAt,value
2023-02-03T00:09:52.362Z,99
2023-02-03T00:19:52.070Z,99
2023-02-03T00:29:52.023Z,99
2023-02-03T00:39:51.986Z,99
2023-02-03T00:49:51.864Z,99
2023-02-03T00:59:51.837Z,99
2023-02-03T01:09:51.709Z,99
2023-02-03T01:19:51.653Z,92
2023-02-03T01:29:51.642Z,46
2023-02-03T01:39:51.501Z,38
2023-02-03T01:49:51.407Z,65
2023-02-03T01:59:51.508Z,75
2023-02-03T02:09:51.299Z,90
2023-02-03T02:19:51.173Z,87
2023-02-03T02:29:51.227Z,99
2023-02-03T02:39:51.059Z,99
2023-02-03T02:49:50.958Z,99
2023-02-03T02:59:51.011Z,74
2023-02-03T03:09:50.820Z,70
2023-02-03T03:19:50.732Z,66
2023-02-03T03:29:50.678Z,74
2023-02-03T03:39:50.632Z,78
2023-02-03T03:49:50.532Z,87
2023-02-03T03:59:51.482Z,86
2023-02-03T04:09:50.472Z,99
2023-02-03T04:19:50.323Z,99
2023-02-03T04:29:50.498Z,99
2023-02-03T04:39:50.195Z,99
2023-02-03T04:49:50.118Z,99
2023-02-03T04:59:50.000Z,99
2023-02-03T05:09:50.055Z,99
2023-02-03T05:19:49.854Z,99
2023-02-03T05:29:49.837Z,99
2023-02-03T05:39:49.732Z,99
2023-02-03T05:49:49.636Z,99
2023-02-03T05:59:49.555Z,99
2023-02-03T06:09:49.537Z,99
2023-02-03T06:19:49.432Z,99
2023-02-03T06:29:49.374Z,99
2023-02-03T06:39:49.337Z,99
2023-02-03T06:49:49.191Z,99
2023-02-03T06:59:49.200Z,99
2023-02-03T07:09:49.049Z,99
2023-02-03T07:19:49.002Z,99
2023-02-03T07:29:48.959Z,99
2023-02-03T07:39:48.839Z,99
2023-02-03T07:49:48.775Z,99
2023-02-03T07:59:48.863Z,99
2023-02-03T08:09:48.633Z,99
2023-02-03T08:19:48.654Z,99
2023-02-03T08:29:48.491Z,99
2023-02-03T08:39:48.396Z,99
2023-02-03T08:49:48.318Z,99
2023-02-03T08:59:48.273Z,99
2023-02-03T09:09:48.168Z,99
2023-02-03T09:19:48.142Z,99
2023-02-03T09:29:48.027Z,99
2023-02-03T09:39:47.969Z,99
2023-02-03T09:49:47.897Z,99
2023-02-03T09:59:47.802Z,99
2023-02-03T10:09:47.759Z,99
2023-02-03T10:19:47.718Z,99
2023-02-03T10:29:47.620Z,99
2023-02-03T10:39:47.538Z,99
2023-02-03T10:49:47.428Z,99
2023-02-03T10:59:47.382Z,99
2023-02-03T11:09:47.285Z,99
2023-02-03T11:19:47.228Z,99
2023-02-03T11:29:47.174Z,99
2023-02-03T11:39:47.084Z,99
2023-02-03T11:49:46.994Z,99
2023-02-03T11:59:46.912Z,99
2023-02-03T12:09:46.981Z,99
2023-02-03T12:19:46.800Z,1
2023-02-03T12:29:46.713Z,1
2023-02-03T12:39:46.629Z,1
2023-02-03T12:49:46.569Z,1
2023-02-03T12:59:46.510Z,1
2023-02-03T13:09:46.419Z,1
2023-02-03T13:19:46.343Z,1
2023-02-03T13:29:46.294Z,1
2023-02-03T13:39:46.215Z,1
2023-02-03T13:49:46.102Z,1
2023-02-03T13:59:46.029Z,1
2023-02-03T14:09:45.991Z,1
2023-02-03T14:19:45.915Z,1
2023-02-03T14:29:45.875Z,1
2023-02-03T14:39:45.764Z,1
2023-02-03T14:49:45.778Z,1
2023-02-03T14:59:45.597Z,1
2023-02-03T15:09:45.521Z,1
2023-02-03T15:19:45.437Z,1
2023-02-03T15:29:45.400Z,1
2023-02-03T15:39:45.455Z,1
2023-02-03T15:49:45.242Z,1
2023-02-03T15:59:45.185Z,1
2023-02-03T16:09:45.077Z,1
2023-02-03T16:19:45.029Z,1
2023-02-03T16:29:44.960Z,1
2023-02-03T16:39:45.392Z,1
2023-02-03T16:49:44.793Z,1
2023-02-03T16:59:44.813Z,1
2023-02-03T17:09:44.649Z,1
2023-02-03T17:19:44.744Z,1
2023-02-03T17:29:44.551Z,1
2023-02-03T17:59:44.591Z,1
2023-02-03T18:09:44.171Z,1
2023-02-03T18:19:46.741Z,1
2023-02-03T18:29:44.008Z,1
2023-02-03T18:39:43.994Z,1
2023-02-03T18:49:43.933Z,1
2023-02-03T18:59:43.894Z,1
2023-02-03T19:09:43.777Z,1
2023-02-03T19:19:43.710Z,1
2023-02-03T19:29:43.656Z,1
2023-02-03T19:39:43.559Z,1
2023-02-03T19:49:43.489Z,1
2023-02-03T19:59:43.415Z,1
2023-02-03T20:09:43.321Z,1
2023-02-03T20:19:43.239Z,99
2023-02-03T20:29:43.170Z,99
2023-02-03T20:39:43.136Z,99
2023-02-03T20:49:43.050Z,99
2023-02-03T20:59:42.956Z,99
2023-02-03T21:09:42.922Z,99
2023-02-03T21:19:42.808Z,99
2023-02-03T21:29:42.834Z,99
2023-02-03T21:39:42.661Z,99
2023-02-03T21:49:42.620Z,99
2023-02-03T21:59:42.540Z,99
2023-02-03T22:09:42.433Z,99
2023-02-03T22:19:42.415Z,99
2023-02-03T22:29:42.306Z,97
2023-02-03T22:39:42.212Z,99
2023-02-03T22:49:42.179Z,99
2023-02-03T22:59:42.212Z,99
2023-02-03T23:09:42.035Z,91
2023-02-03T23:19:41.930Z,86
2023-02-03T23:29:41.968Z,78
2023-02-03T23:39:41.800Z,58
2023-02-03T23:49:41.740Z,61
2023-02-03T23:59:41.638Z,47
